sensor_id;sensor_type;location;lat;lon;timestamp;P1;durP1;ratioP1;P2;durP2;ratioP2
22480;SDS011;11407;56.964;-2.212;2022-09-09T00:04:33;24.10;;;5.57;;
22480;SDS011;11407;56.964;-2.212;2022-09-09T00:07:18;30.50;;;6.23;;
22480;SDS011;11407;56.964;-2.212;2022-09-09T00:09:52;31.70;;;6.73;;
22480;SDS011;11407;56.964;-2.212;2022-09-09T00:12:34;37.23;;;7.80;;
22480;SDS011;11407;56.964;-2.212;2022-09-09T00:15:07;34.37;;;7.93;;
22480;SDS011;11407;56.964;-2.212;2022-09-09T00:17:38;33.70;;;7.37;;
22480;SDS011;11407;56.964;-2.212;2022-09-09T00:20:13;23.17;;;6.50;;
22480;SDS011;11407;56.964;-2.212;2022-09-09T00:22:57;30.63;;;6.93;;
22480;SDS011;11407;56.964;-2.212;2022-09-09T00:25:37;28.83;;;6.97;;
22480;SDS011;11407;56.964;-2.212;2022-09-09T00:28:13;31.37;;;7.20;;
22480;SDS011;11407;56.964;-2.212;2022-09-09T00:30:44;21.50;;;5.83;;
22480;SDS011;11407;56.964;-2.212;2022-09-09T00:33:14;22.27;;;6.23;;
22480;SDS011;11407;56.964;-2.212;2022-09-09T00:36:01;29.67;;;7.60;;
22480;SDS011;11407;56.964;-2.212;2022-09-09T00:38:41;30.43;;;6.80;;
22480;SDS011;11407;56.964;-2.212;2022-09-09T00:43:57;32.83;;;6.07;;
22480;SDS011;11407;56.964;-2.212;2022-09-09T00:57:36;24.97;;;5.87;;
22480;SDS011;11407;56.964;-2.212;2022-09-09T01:00:20;29.93;;;6.60;;
22480;SDS011;11407;56.964;-2.212;2022-09-09T01:08:11;30.33;;;7.93;;
22480;SDS011;11407;56.964;-2.212;2022-09-09T01:10:53;33.13;;;7.83;;
22480;SDS011;11407;56.964;-2.212;2022-09-09T01:13:27;27.53;;;7.00;;
22480;SDS011;11407;56.964;-2.212;2022-09-09T01:15:56;40.50;;;8.67;;
22480;SDS011;11407;56.964;-2.212;2022-09-09T01:18:26;44.10;;;9.07;;
22480;SDS011;11407;56.964;-2.212;2022-09-09T01:24:31;45.83;;;9.23;;
22480;SDS011;11407;56.964;-2.212;2022-09-09T01:26:30;31.33;;;7.37;;
22480;SDS011;11407;56.964;-2.212;2022-09-09T01:28:57;31.20;;;7.47;;
22480;SDS011;11407;56.964;-2.212;2022-09-09T01:31:30;27.40;;;7.57;;
22480;SDS011;11407;56.964;-2.212;2022-09-09T01:34:02;27.90;;;7.40;;
22480;SDS011;11407;56.964;-2.212;2022-09-09T01:36:35;34.60;;;8.60;;
22480;SDS011;11407;56.964;-2.212;2022-09-09T01:39:08;36.57;;;8.73;;
22480;SDS011;11407;56.964;-2.212;2022-09-09T01:41:33;39.67;;;8.83;;
22480;SDS011;11407;56.964;-2.212;2022-09-09T01:43:59;34.00;;;7.50;;
22480;SDS011;11407;56.964;-2.212;2022-09-09T01:46:24;29.37;;;8.57;;
22480;SDS011;11407;56.964;-2.212;2022-09-09T01:48:51;30.37;;;7.33;;
22480;SDS011;11407;56.964;-2.212;2022-09-09T01:51:18;30.47;;;7.63;;
22480;SDS011;11407;56.964;-2.212;2022-09-09T01:53:44;29.00;;;7.37;;
22480;SDS011;11407;56.964;-2.212;2022-09-09T01:56:15;33.20;;;8.67;;
22480;SDS011;11407;56.964;-2.212;2022-09-09T02:04:23;26.87;;;7.60;;
22480;SDS011;11407;56.964;-2.212;2022-09-09T02:06:58;31.37;;;8.13;;
22480;SDS011;11407;56.964;-2.212;2022-09-09T02:09:25;34.00;;;8.13;;
22480;SDS011;11407;56.964;-2.212;2022-09-09T02:11:59;29.10;;;6.23;;
22480;SDS011;11407;56.964;-2.212;2022-09-09T02:14:34;25.73;;;6.50;;
22480;SDS011;11407;56.964;-2.212;2022-09-09T02:17:10;26.73;;;7.53;;
22480;SDS011;11407;56.964;-2.212;2022-09-09T02:19:42;30.47;;;8.27;;
22480;SDS011;11407;56.964;-2.212;2022-09-09T02:22:13;32.50;;;7.03;;
22480;SDS011;11407;56.964;-2.212;2022-09-09T02:24:43;26.27;;;6.37;;
22480;SDS011;11407;56.964;-2.212;2022-09-09T02:27:11;28.00;;;5.77;;
22480;SDS011;11407;56.964;-2.212;2022-09-09T02:29:40;35.07;;;7.83;;
22480;SDS011;11407;56.964;-2.212;2022-09-09T02:32:10;31.23;;;7.70;;
22480;SDS011;11407;56.964;-2.212;2022-09-09T02:34:40;27.73;;;6.80;;
22480;SDS011;11407;56.964;-2.212;2022-09-09T02:37:09;25.50;;;6.53;;
22480;SDS011;11407;56.964;-2.212;2022-09-09T02:39:37;26.20;;;6.03;;
22480;SDS011;11407;56.964;-2.212;2022-09-09T02:42:03;32.80;;;6.50;;
22480;SDS011;11407;56.964;-2.212;2022-09-09T02:44:30;27.23;;;6.43;;
22480;SDS011;11407;56.964;-2.212;2022-09-09T02:49:38;31.87;;;7.10;;
22480;SDS011;11407;56.964;-2.212;2022-09-09T02:52:15;40.73;;;7.70;;
22480;SDS011;11407;56.964;-2.212;2022-09-09T02:54:47;31.57;;;5.80;;
22480;SDS011;11407;56.964;-2.212;2022-09-09T02:57:19;29.30;;;5.47;;
22480;SDS011;11407;56.964;-2.212;2022-09-09T02:59:49;32.60;;;6.57;;
22480;SDS011;11407;56.964;-2.212;2022-09-09T03:02:15;25.80;;;5.23;;
22480;SDS011;11407;56.964;-2.212;2022-09-09T03:04:40;40.57;;;7.43;;
22480;SDS011;11407;56.964;-2.212;2022-09-09T03:07:08;34.77;;;6.77;;
22480;SDS011;11407;56.964;-2.212;2022-09-09T03:09:34;26.93;;;5.37;;
22480;SDS011;11407;56.964;-2.212;2022-09-09T03:12:00;37.20;;;6.97;;
22480;SDS011;11407;56.964;-2.212;2022-09-09T03:14:25;35.10;;;6.63;;
22480;SDS011;11407;56.964;-2.212;2022-09-09T03:16:51;38.40;;;8.03;;
22480;SDS011;11407;56.964;-2.212;2022-09-09T03:19:18;27.27;;;6.13;;
22480;SDS011;11407;56.964;-2.212;2022-09-09T03:21:44;20.67;;;5.10;;
22480;SDS011;11407;56.964;-2.212;2022-09-09T03:24:10;27.07;;;5.77;;
22480;SDS011;11407;56.964;-2.212;2022-09-09T03:26:36;35.23;;;6.97;;
22480;SDS011;11407;56.964;-2.212;2022-09-09T03:29:03;37.97;;;7.67;;
22480;SDS011;11407;56.964;-2.212;2022-09-09T03:31:31;27.70;;;5.80;;
22480;SDS011;11407;56.964;-2.212;2022-09-09T03:33:57;25.77;;;6.30;;
22480;SDS011;11407;56.964;-2.212;2022-09-09T03:36:24;33.60;;;6.60;;
22480;SDS011;11407;56.964;-2.212;2022-09-09T03:38:51;27.73;;;5.87;;
22480;SDS011;11407;56.964;-2.212;2022-09-09T03:41:17;33.13;;;7.37;;
22480;SDS011;11407;56.964;-2.212;2022-09-09T03:43:43;36.23;;;7.23;;
22480;SDS011;11407;56.964;-2.212;2022-09-09T03:46:09;38.10;;;6.87;;
22480;SDS011;11407;56.964;-2.212;2022-09-09T03:48:35;38.90;;;8.70;;
22480;SDS011;11407;56.964;-2.212;2022-09-09T03:51:00;33.53;;;7.60;;
22480;SDS011;11407;56.964;-2.212;2022-09-09T03:53:27;33.80;;;6.30;;
22480;SDS011;11407;56.964;-2.212;2022-09-09T03:55:53;22.97;;;5.03;;
22480;SDS011;11407;56.964;-2.212;2022-09-09T03:58:21;33.00;;;7.60;;
22480;SDS011;11407;56.964;-2.212;2022-09-09T04:00:53;45.70;;;7.97;;
22480;SDS011;11407;56.964;-2.212;2022-09-09T04:03:22;32.33;;;6.97;;
22480;SDS011;11407;56.964;-2.212;2022-09-09T04:05:49;35.17;;;6.47;;
22480;SDS011;11407;56.964;-2.212;2022-09-09T04:08:16;42.37;;;8.60;;
22480;SDS011;11407;56.964;-2.212;2022-09-09T04:10:44;32.77;;;8.00;;
22480;SDS011;11407;56.964;-2.212;2022-09-09T04:13:11;44.40;;;9.73;;
22480;SDS011;11407;56.964;-2.212;2022-09-09T04:15:38;45.50;;;8.93;;
22480;SDS011;11407;56.964;-2.212;2022-09-09T04:18:03;61.27;;;11.37;;
22480;SDS011;11407;56.964;-2.212;2022-09-09T04:20:28;46.13;;;9.13;;
22480;SDS011;11407;56.964;-2.212;2022-09-09T04:22:55;45.17;;;9.97;;
22480;SDS011;11407;56.964;-2.212;2022-09-09T04:25:20;48.67;;;10.23;;
22480;SDS011;11407;56.964;-2.212;2022-09-09T04:27:46;31.17;;;7.50;;
22480;SDS011;11407;56.964;-2.212;2022-09-09T04:30:12;26.60;;;6.60;;
22480;SDS011;11407;56.964;-2.212;2022-09-09T04:32:37;46.90;;;8.93;;
22480;SDS011;11407;56.964;-2.212;2022-09-09T04:35:03;31.70;;;7.17;;
22480;SDS011;11407;56.964;-2.212;2022-09-09T04:37:29;32.23;;;7.73;;
22480;SDS011;11407;56.964;-2.212;2022-09-09T04:39:54;30.00;;;7.63;;
22480;SDS011;11407;56.964;-2.212;2022-09-09T04:42:20;34.13;;;7.87;;
22480;SDS011;11407;56.964;-2.212;2022-09-09T04:44:46;32.67;;;7.13;;
22480;SDS011;11407;56.964;-2.212;2022-09-09T04:47:11;32.57;;;7.80;;
22480;SDS011;11407;56.964;-2.212;2022-09-09T04:49:37;29.57;;;6.57;;
22480;SDS011;11407;56.964;-2.212;2022-09-09T04:52:03;21.20;;;4.97;;
22480;SDS011;11407;56.964;-2.212;2022-09-09T04:54:29;23.17;;;4.80;;
22480;SDS011;11407;56.964;-2.212;2022-09-09T04:56:54;31.73;;;6.10;;
22480;SDS011;11407;56.964;-2.212;2022-09-09T04:59:20;35.87;;;6.57;;
22480;SDS011;11407;56.964;-2.212;2022-09-09T05:01:47;25.10;;;6.67;;
22480;SDS011;11407;56.964;-2.212;2022-09-09T05:04:13;20.07;;;5.07;;
22480;SDS011;11407;56.964;-2.212;2022-09-09T05:06:40;15.27;;;4.60;;
22480;SDS011;11407;56.964;-2.212;2022-09-09T05:09:05;21.90;;;5.13;;
22480;SDS011;11407;56.964;-2.212;2022-09-09T05:11:31;20.83;;;4.83;;
22480;SDS011;11407;56.964;-2.212;2022-09-09T05:14:01;23.20;;;5.57;;
22480;SDS011;11407;56.964;-2.212;2022-09-09T05:16:26;21.13;;;4.90;;
22480;SDS011;11407;56.964;-2.212;2022-09-09T05:18:52;23.37;;;5.67;;
22480;SDS011;11407;56.964;-2.212;2022-09-09T05:21:18;19.03;;;5.27;;
22480;SDS011;11407;56.964;-2.212;2022-09-09T05:23:45;24.30;;;5.73;;
22480;SDS011;11407;56.964;-2.212;2022-09-09T05:26:12;22.20;;;6.43;;
22480;SDS011;11407;56.964;-2.212;2022-09-09T05:28:39;22.03;;;5.00;;
22480;SDS011;11407;56.964;-2.212;2022-09-09T05:31:06;21.13;;;5.03;;
22480;SDS011;11407;56.964;-2.212;2022-09-09T05:33:42;31.00;;;6.27;;
22480;SDS011;11407;56.964;-2.212;2022-09-09T05:36:11;23.47;;;5.80;;
22480;SDS011;11407;56.964;-2.212;2022-09-09T05:38:38;18.60;;;5.00;;
22480;SDS011;11407;56.964;-2.212;2022-09-09T05:41:05;32.23;;;6.93;;
22480;SDS011;11407;56.964;-2.212;2022-09-09T05:43:31;27.13;;;6.80;;
22480;SDS011;11407;56.964;-2.212;2022-09-09T05:48:33;35.07;;;7.97;;
22480;SDS011;11407;56.964;-2.212;2022-09-09T05:51:00;44.47;;;9.03;;
22480;SDS011;11407;56.964;-2.212;2022-09-09T05:53:27;28.83;;;7.40;;
22480;SDS011;11407;56.964;-2.212;2022-09-09T05:56:00;24.90;;;5.83;;
22480;SDS011;11407;56.964;-2.212;2022-09-09T05:58:28;24.90;;;5.70;;
22480;SDS011;11407;56.964;-2.212;2022-09-09T06:01:04;24.53;;;6.03;;
22480;SDS011;11407;56.964;-2.212;2022-09-09T06:03:39;20.77;;;5.13;;
22480;SDS011;11407;56.964;-2.212;2022-09-09T06:06:06;20.07;;;5.63;;
22480;SDS011;11407;56.964;-2.212;2022-09-09T06:08:34;24.53;;;6.23;;
22480;SDS011;11407;56.964;-2.212;2022-09-09T06:11:10;23.73;;;5.10;;
22480;SDS011;11407;56.964;-2.212;2022-09-09T06:13:37;27.33;;;6.20;;
22480;SDS011;11407;56.964;-2.212;2022-09-09T06:16:04;35.43;;;7.57;;
22480;SDS011;11407;56.964;-2.212;2022-09-09T06:18:32;32.73;;;7.07;;
22480;SDS011;11407;56.964;-2.212;2022-09-09T06:20:58;28.17;;;6.03;;
22480;SDS011;11407;56.964;-2.212;2022-09-09T06:23:31;23.93;;;5.87;;
22480;SDS011;11407;56.964;-2.212;2022-09-09T06:26:06;21.40;;;6.00;;
22480;SDS011;11407;56.964;-2.212;2022-09-09T06:28:34;39.17;;;8.80;;
22480;SDS011;11407;56.964;-2.212;2022-09-09T06:31:02;35.20;;;6.17;;
22480;SDS011;11407;56.964;-2.212;2022-09-09T06:33:33;29.63;;;7.13;;
22480;SDS011;11407;56.964;-2.212;2022-09-09T06:36:00;24.90;;;6.00;;
22480;SDS011;11407;56.964;-2.212;2022-09-09T06:38:26;30.47;;;7.07;;
22480;SDS011;11407;56.964;-2.212;2022-09-09T06:40:56;25.67;;;5.97;;
22480;SDS011;11407;56.964;-2.212;2022-09-09T06:43:26;27.40;;;6.23;;
22480;SDS011;11407;56.964;-2.212;2022-09-09T06:46:03;32.80;;;7.93;;
22480;SDS011;11407;56.964;-2.212;2022-09-09T06:48:34;34.67;;;8.03;;
22480;SDS011;11407;56.964;-2.212;2022-09-09T06:51:03;35.50;;;8.97;;
22480;SDS011;11407;56.964;-2.212;2022-09-09T06:53:31;25.90;;;6.23;;
22480;SDS011;11407;56.964;-2.212;2022-09-09T06:58:35;26.27;;;5.43;;
22480;SDS011;11407;56.964;-2.212;2022-09-09T07:01:07;27.60;;;5.93;;
22480;SDS011;11407;56.964;-2.212;2022-09-09T07:03:33;26.27;;;6.23;;
22480;SDS011;11407;56.964;-2.212;2022-09-09T07:05:58;28.67;;;5.70;;
22480;SDS011;11407;56.964;-2.212;2022-09-09T07:08:24;29.30;;;5.63;;
22480;SDS011;11407;56.964;-2.212;2022-09-09T07:10:51;35.67;;;6.60;;
22480;SDS011;11407;56.964;-2.212;2022-09-09T07:13:19;27.47;;;5.77;;
22480;SDS011;11407;56.964;-2.212;2022-09-09T07:15:54;23.87;;;5.63;;
22480;SDS011;11407;56.964;-2.212;2022-09-09T07:18:19;37.33;;;7.00;;
22480;SDS011;11407;56.964;-2.212;2022-09-09T07:20:54;44.57;;;9.10;;
22480;SDS011;11407;56.964;-2.212;2022-09-09T07:23:22;39.30;;;7.87;;
22480;SDS011;11407;56.964;-2.212;2022-09-09T07:25:47;36.03;;;8.20;;
22480;SDS011;11407;56.964;-2.212;2022-09-09T07:28:13;39.67;;;8.20;;
22480;SDS011;11407;56.964;-2.212;2022-09-09T07:30:39;44.83;;;9.07;;
22480;SDS011;11407;56.964;-2.212;2022-09-09T07:33:05;47.97;;;10.00;;
22480;SDS011;11407;56.964;-2.212;2022-09-09T07:35:31;30.70;;;8.17;;
22480;SDS011;11407;56.964;-2.212;2022-09-09T07:37:57;33.97;;;6.63;;
22480;SDS011;11407;56.964;-2.212;2022-09-09T07:40:23;32.33;;;6.50;;
22480;SDS011;11407;56.964;-2.212;2022-09-09T07:42:49;28.20;;;5.40;;
22480;SDS011;11407;56.964;-2.212;2022-09-09T07:45:15;26.93;;;6.17;;
22480;SDS011;11407;56.964;-2.212;2022-09-09T07:47:40;29.03;;;6.50;;
22480;SDS011;11407;56.964;-2.212;2022-09-09T07:50:07;30.80;;;5.50;;
22480;SDS011;11407;56.964;-2.212;2022-09-09T07:52:34;27.53;;;5.60;;
22480;SDS011;11407;56.964;-2.212;2022-09-09T07:55:00;25.80;;;5.53;;
22480;SDS011;11407;56.964;-2.212;2022-09-09T07:57:28;29.57;;;5.80;;
22480;SDS011;11407;56.964;-2.212;2022-09-09T07:59:55;29.47;;;4.90;;
22480;SDS011;11407;56.964;-2.212;2022-09-09T08:02:21;28.83;;;5.13;;
22480;SDS011;11407;56.964;-2.212;2022-09-09T08:04:48;25.03;;;4.80;;
22480;SDS011;11407;56.964;-2.212;2022-09-09T08:07:13;23.87;;;4.33;;
22480;SDS011;11407;56.964;-2.212;2022-09-09T08:09:39;25.40;;;4.23;;
22480;SDS011;11407;56.964;-2.212;2022-09-09T08:12:05;29.67;;;5.77;;
22480;SDS011;11407;56.964;-2.212;2022-09-09T08:14:33;25.47;;;5.00;;
22480;SDS011;11407;56.964;-2.212;2022-09-09T08:16:59;21.67;;;4.43;;
22480;SDS011;11407;56.964;-2.212;2022-09-09T08:19:24;26.73;;;4.97;;
22480;SDS011;11407;56.964;-2.212;2022-09-09T08:21:50;25.53;;;5.43;;
22480;SDS011;11407;56.964;-2.212;2022-09-09T08:24:16;23.77;;;5.70;;
22480;SDS011;11407;56.964;-2.212;2022-09-09T08:26:42;22.80;;;4.90;;
22480;SDS011;11407;56.964;-2.212;2022-09-09T08:29:10;31.40;;;6.20;;
22480;SDS011;11407;56.964;-2.212;2022-09-09T08:31:43;28.20;;;6.00;;
22480;SDS011;11407;56.964;-2.212;2022-09-09T08:34:19;30.33;;;7.30;;
22480;SDS011;11407;56.964;-2.212;2022-09-09T08:36:45;33.97;;;6.73;;
22480;SDS011;11407;56.964;-2.212;2022-09-09T08:39:13;21.93;;;4.83;;
22480;SDS011;11407;56.964;-2.212;2022-09-09T08:55:46;28.23;;;6.53;;
22480;SDS011;11407;56.964;-2.212;2022-09-09T08:58:16;28.63;;;6.43;;
22480;SDS011;11407;56.964;-2.212;2022-09-09T09:11:39;26.00;;;5.80;;
22480;SDS011;11407;56.964;-2.212;2022-09-09T09:14:11;34.93;;;7.10;;
22480;SDS011;11407;56.964;-2.212;2022-09-09T09:19:28;32.60;;;6.57;;
22480;SDS011;11407;56.964;-2.212;2022-09-09T09:21:58;28.07;;;5.63;;
22480;SDS011;11407;56.964;-2.212;2022-09-09T09:24:40;33.93;;;6.40;;
22480;SDS011;11407;56.964;-2.212;2022-09-09T09:27:14;28.37;;;5.90;;
22480;SDS011;11407;56.964;-2.212;2022-09-09T09:29:44;25.63;;;5.67;;
22480;SDS011;11407;56.964;-2.212;2022-09-09T09:32:14;31.67;;;6.57;;
22480;SDS011;11407;56.964;-2.212;2022-09-09T09:34:48;26.47;;;6.43;;
22480;SDS011;11407;56.964;-2.212;2022-09-09T09:37:23;23.23;;;5.27;;
22480;SDS011;11407;56.964;-2.212;2022-09-09T09:40:09;27.40;;;6.27;;
22480;SDS011;11407;56.964;-2.212;2022-09-09T09:42:47;27.13;;;5.57;;
22480;SDS011;11407;56.964;-2.212;2022-09-09T09:48:00;32.87;;;6.87;;
22480;SDS011;11407;56.964;-2.212;2022-09-09T09:50:28;29.27;;;6.23;;
22480;SDS011;11407;56.964;-2.212;2022-09-09T09:52:55;35.50;;;6.87;;
22480;SDS011;11407;56.964;-2.212;2022-09-09T09:55:22;27.93;;;5.93;;
22480;SDS011;11407;56.964;-2.212;2022-09-09T09:57:49;27.63;;;6.63;;
22480;SDS011;11407;56.964;-2.212;2022-09-09T10:00:16;33.30;;;6.77;;
22480;SDS011;11407;56.964;-2.212;2022-09-09T10:02:44;22.50;;;6.07;;
22480;SDS011;11407;56.964;-2.212;2022-09-09T10:05:19;32.90;;;6.53;;
22480;SDS011;11407;56.964;-2.212;2022-09-09T10:07:57;32.00;;;6.07;;
22480;SDS011;11407;56.964;-2.212;2022-09-09T10:13:20;26.10;;;5.57;;
22480;SDS011;11407;56.964;-2.212;2022-09-09T10:15:52;25.17;;;5.10;;
22480;SDS011;11407;56.964;-2.212;2022-09-09T10:24:43;20.67;;;5.40;;
22480;SDS011;11407;56.964;-2.212;2022-09-09T10:51:59;25.57;;;6.07;;
22480;SDS011;11407;56.964;-2.212;2022-09-09T10:59:48;27.77;;;6.07;;
22480;SDS011;11407;56.964;-2.212;2022-09-09T11:02:27;29.33;;;6.60;;
22480;SDS011;11407;56.964;-2.212;2022-09-09T11:04:56;33.97;;;6.97;;
22480;SDS011;11407;56.964;-2.212;2022-09-09T11:07:32;23.70;;;6.87;;
22480;SDS011;11407;56.964;-2.212;2022-09-09T11:10:01;28.00;;;6.77;;
22480;SDS011;11407;56.964;-2.212;2022-09-09T11:12:31;32.50;;;7.67;;
22480;SDS011;11407;56.964;-2.212;2022-09-09T11:15:06;37.10;;;8.40;;
22480;SDS011;11407;56.964;-2.212;2022-09-09T11:17:46;34.70;;;7.40;;
22480;SDS011;11407;56.964;-2.212;2022-09-09T11:20:15;36.17;;;7.70;;
22480;SDS011;11407;56.964;-2.212;2022-09-09T11:22:46;36.40;;;7.50;;
22480;SDS011;11407;56.964;-2.212;2022-09-09T11:25:17;27.93;;;6.80;;
22480;SDS011;11407;56.964;-2.212;2022-09-09T11:30:22;29.67;;;6.90;;
22480;SDS011;11407;56.964;-2.212;2022-09-09T11:41:09;31.00;;;7.03;;
22480;SDS011;11407;56.964;-2.212;2022-09-09T11:43:45;28.40;;;6.67;;
22480;SDS011;11407;56.964;-2.212;2022-09-09T11:46:11;29.97;;;6.67;;
22480;SDS011;11407;56.964;-2.212;2022-09-09T11:48:43;23.73;;;6.47;;
22480;SDS011;11407;56.964;-2.212;2022-09-09T11:51:32;21.17;;;5.57;;
22480;SDS011;11407;56.964;-2.212;2022-09-09T11:53:58;24.43;;;5.20;;
22480;SDS011;11407;56.964;-2.212;2022-09-09T11:56:31;29.33;;;6.30;;
22480;SDS011;11407;56.964;-2.212;2022-09-09T11:59:03;19.50;;;5.20;;
22480;SDS011;11407;56.964;-2.212;2022-09-09T12:04:01;29.93;;;5.70;;
22480;SDS011;11407;56.964;-2.212;2022-09-09T12:06:31;33.30;;;7.57;;
22480;SDS011;11407;56.964;-2.212;2022-09-09T12:09:05;30.47;;;6.73;;
22480;SDS011;11407;56.964;-2.212;2022-09-09T12:11:42;28.20;;;6.53;;
22480;SDS011;11407;56.964;-2.212;2022-09-09T12:14:18;28.63;;;6.73;;
22480;SDS011;11407;56.964;-2.212;2022-09-09T12:16:46;17.90;;;4.60;;
22480;SDS011;11407;56.964;-2.212;2022-09-09T12:24:09;25.03;;;6.97;;
22480;SDS011;11407;56.964;-2.212;2022-09-09T12:32:12;30.30;;;7.07;;
22480;SDS011;11407;56.964;-2.212;2022-09-09T12:40:19;18.77;;;4.80;;
22480;SDS011;11407;56.964;-2.212;2022-09-09T12:42:45;14.03;;;3.90;;
22480;SDS011;11407;56.964;-2.212;2022-09-09T12:45:15;20.37;;;4.37;;
22480;SDS011;11407;56.964;-2.212;2022-09-09T12:48:04;15.17;;;3.43;;
22480;SDS011;11407;56.964;-2.212;2022-09-09T12:50:32;21.30;;;5.03;;
22480;SDS011;11407;56.964;-2.212;2022-09-09T12:53:02;20.70;;;4.63;;
22480;SDS011;11407;56.964;-2.212;2022-09-09T12:55:35;16.03;;;4.03;;
22480;SDS011;11407;56.964;-2.212;2022-09-09T12:58:03;13.43;;;3.13;;
22480;SDS011;11407;56.964;-2.212;2022-09-09T13:00:30;23.70;;;5.50;;
22480;SDS011;11407;56.964;-2.212;2022-09-09T13:02:58;12.63;;;4.10;;
22480;SDS011;11407;56.964;-2.212;2022-09-09T13:08:01;20.93;;;4.90;;
22480;SDS011;11407;56.964;-2.212;2022-09-09T13:10:33;12.80;;;3.93;;
22480;SDS011;11407;56.964;-2.212;2022-09-09T13:13:04;16.27;;;3.57;;
22480;SDS011;11407;56.964;-2.212;2022-09-09T13:15:38;18.33;;;3.70;;
22480;SDS011;11407;56.964;-2.212;2022-09-09T13:18:04;13.20;;;2.90;;
22480;SDS011;11407;56.964;-2.212;2022-09-09T13:20:36;7.70;;;2.10;;
22480;SDS011;11407;56.964;-2.212;2022-09-09T13:23:02;10.67;;;2.53;;
22480;SDS011;11407;56.964;-2.212;2022-09-09T13:25:28;15.40;;;3.50;;
22480;SDS011;11407;56.964;-2.212;2022-09-09T13:30:31;11.87;;;2.63;;
22480;SDS011;11407;56.964;-2.212;2022-09-09T13:35:27;9.60;;;2.60;;
22480;SDS011;11407;56.964;-2.212;2022-09-09T13:37:53;8.87;;;2.83;;
22480;SDS011;11407;56.964;-2.212;2022-09-09T13:40:21;23.47;;;5.03;;
22480;SDS011;11407;56.964;-2.212;2022-09-09T13:42:51;11.43;;;2.80;;
22480;SDS011;11407;56.964;-2.212;2022-09-09T13:45:23;26.73;;;5.70;;
22480;SDS011;11407;56.964;-2.212;2022-09-09T13:47:52;13.77;;;4.03;;
22480;SDS011;11407;56.964;-2.212;2022-09-09T13:50:29;16.63;;;4.60;;
22480;SDS011;11407;56.964;-2.212;2022-09-09T13:52:56;8.73;;;2.80;;
22480;SDS011;11407;56.964;-2.212;2022-09-09T13:55:24;11.80;;;3.27;;
22480;SDS011;11407;56.964;-2.212;2022-09-09T14:00:17;11.37;;;2.77;;
22480;SDS011;11407;56.964;-2.212;2022-09-09T14:02:42;14.97;;;2.77;;
22480;SDS011;11407;56.964;-2.212;2022-09-09T14:05:09;7.47;;;2.33;;
22480;SDS011;11407;56.964;-2.212;2022-09-09T14:07:36;8.53;;;2.03;;
22480;SDS011;11407;56.964;-2.212;2022-09-09T14:10:03;6.70;;;2.30;;
22480;SDS011;11407;56.964;-2.212;2022-09-09T14:12:30;10.97;;;2.27;;
22480;SDS011;11407;56.964;-2.212;2022-09-09T14:14:55;10.23;;;2.30;;
22480;SDS011;11407;56.964;-2.212;2022-09-09T14:17:21;8.53;;;2.37;;
22480;SDS011;11407;56.964;-2.212;2022-09-09T14:19:47;15.00;;;3.37;;
22480;SDS011;11407;56.964;-2.212;2022-09-09T14:22:13;13.93;;;3.13;;
22480;SDS011;11407;56.964;-2.212;2022-09-09T14:24:38;9.20;;;2.83;;
22480;SDS011;11407;56.964;-2.212;2022-09-09T14:27:04;6.93;;;2.20;;
22480;SDS011;11407;56.964;-2.212;2022-09-09T14:29:29;13.77;;;2.80;;
22480;SDS011;11407;56.964;-2.212;2022-09-09T14:31:55;9.20;;;2.53;;
22480;SDS011;11407;56.964;-2.212;2022-09-09T14:34:20;9.53;;;3.27;;
22480;SDS011;11407;56.964;-2.212;2022-09-09T14:36:45;16.20;;;3.47;;
22480;SDS011;11407;56.964;-2.212;2022-09-09T14:39:11;13.90;;;3.00;;
22480;SDS011;11407;56.964;-2.212;2022-09-09T14:41:37;11.23;;;2.90;;
22480;SDS011;11407;56.964;-2.212;2022-09-09T14:44:02;9.53;;;2.70;;
22480;SDS011;11407;56.964;-2.212;2022-09-09T14:46:28;9.80;;;3.03;;
22480;SDS011;11407;56.964;-2.212;2022-09-09T14:48:54;18.10;;;2.93;;
22480;SDS011;11407;56.964;-2.212;2022-09-09T14:51:20;8.17;;;2.37;;
22480;SDS011;11407;56.964;-2.212;2022-09-09T14:53:48;11.23;;;2.30;;
22480;SDS011;11407;56.964;-2.212;2022-09-09T14:56:20;7.37;;;2.03;;
22480;SDS011;11407;56.964;-2.212;2022-09-09T14:58:48;6.73;;;2.40;;
22480;SDS011;11407;56.964;-2.212;2022-09-09T15:01:15;9.00;;;2.63;;
22480;SDS011;11407;56.964;-2.212;2022-09-09T15:03:42;12.03;;;2.87;;
22480;SDS011;11407;56.964;-2.212;2022-09-09T15:06:14;10.23;;;2.30;;
22480;SDS011;11407;56.964;-2.212;2022-09-09T15:08:41;7.33;;;2.10;;
22480;SDS011;11407;56.964;-2.212;2022-09-09T15:11:08;9.57;;;2.03;;
22480;SDS011;11407;56.964;-2.212;2022-09-09T15:13:35;8.77;;;2.40;;
22480;SDS011;11407;56.964;-2.212;2022-09-09T15:16:09;7.33;;;2.17;;
22480;SDS011;11407;56.964;-2.212;2022-09-09T15:18:36;7.60;;;2.60;;
22480;SDS011;11407;56.964;-2.212;2022-09-09T15:21:05;7.53;;;1.93;;
22480;SDS011;11407;56.964;-2.212;2022-09-09T15:23:31;9.47;;;2.70;;
22480;SDS011;11407;56.964;-2.212;2022-09-09T15:25:57;5.63;;;2.00;;
22480;SDS011;11407;56.964;-2.212;2022-09-09T15:28:23;6.37;;;2.13;;
22480;SDS011;11407;56.964;-2.212;2022-09-09T15:30:49;9.10;;;2.07;;
22480;SDS011;11407;56.964;-2.212;2022-09-09T15:33:17;9.10;;;2.10;;
22480;SDS011;11407;56.964;-2.212;2022-09-09T15:35:42;7.93;;;2.80;;
22480;SDS011;11407;56.964;-2.212;2022-09-09T15:38:08;7.03;;;2.20;;
22480;SDS011;11407;56.964;-2.212;2022-09-09T15:40:33;7.73;;;2.13;;
22480;SDS011;11407;56.964;-2.212;2022-09-09T15:42:59;9.67;;;1.80;;
22480;SDS011;11407;56.964;-2.212;2022-09-09T15:45:24;9.40;;;2.00;;
22480;SDS011;11407;56.964;-2.212;2022-09-09T15:47:49;6.23;;;2.17;;
22480;SDS011;11407;56.964;-2.212;2022-09-09T15:50:15;7.73;;;2.10;;
22480;SDS011;11407;56.964;-2.212;2022-09-09T15:52:41;10.03;;;2.27;;
22480;SDS011;11407;56.964;-2.212;2022-09-09T15:55:06;13.23;;;3.13;;
22480;SDS011;11407;56.964;-2.212;2022-09-09T15:57:33;9.97;;;2.40;;
22480;SDS011;11407;56.964;-2.212;2022-09-09T15:59:59;8.00;;;2.40;;
22480;SDS011;11407;56.964;-2.212;2022-09-09T16:02:25;13.73;;;3.07;;
22480;SDS011;11407;56.964;-2.212;2022-09-09T16:04:50;11.37;;;2.13;;
22480;SDS011;11407;56.964;-2.212;2022-09-09T16:07:16;6.57;;;2.13;;
22480;SDS011;11407;56.964;-2.212;2022-09-09T16:09:41;5.23;;;1.97;;
22480;SDS011;11407;56.964;-2.212;2022-09-09T16:12:08;8.50;;;2.23;;
22480;SDS011;11407;56.964;-2.212;2022-09-09T16:14:38;10.33;;;2.30;;
22480;SDS011;11407;56.964;-2.212;2022-09-09T16:17:04;9.53;;;2.20;;
22480;SDS011;11407;56.964;-2.212;2022-09-09T16:19:30;7.53;;;2.10;;
22480;SDS011;11407;56.964;-2.212;2022-09-09T16:21:56;6.53;;;2.10;;
22480;SDS011;11407;56.964;-2.212;2022-09-09T16:24:21;6.20;;;1.90;;
22480;SDS011;11407;56.964;-2.212;2022-09-09T16:26:49;6.63;;;2.00;;
22480;SDS011;11407;56.964;-2.212;2022-09-09T16:29:17;9.03;;;2.40;;
22480;SDS011;11407;56.964;-2.212;2022-09-09T16:31:44;10.40;;;2.43;;
22480;SDS011;11407;56.964;-2.212;2022-09-09T16:34:11;8.73;;;1.93;;
22480;SDS011;11407;56.964;-2.212;2022-09-09T16:36:37;6.27;;;1.90;;
22480;SDS011;11407;56.964;-2.212;2022-09-09T16:39:06;6.67;;;1.83;;
22480;SDS011;11407;56.964;-2.212;2022-09-09T16:41:37;5.80;;;1.93;;
22480;SDS011;11407;56.964;-2.212;2022-09-09T16:44:05;6.33;;;1.80;;
22480;SDS011;11407;56.964;-2.212;2022-09-09T16:46:33;5.57;;;2.00;;
22480;SDS011;11407;56.964;-2.212;2022-09-09T16:49:00;4.10;;;1.73;;
22480;SDS011;11407;56.964;-2.212;2022-09-09T16:51:28;3.97;;;1.60;;
22480;SDS011;11407;56.964;-2.212;2022-09-09T16:53:57;3.90;;;1.50;;
22480;SDS011;11407;56.964;-2.212;2022-09-09T16:56:24;4.47;;;1.33;;
22480;SDS011;11407;56.964;-2.212;2022-09-09T16:58:52;3.13;;;1.30;;
22480;SDS011;11407;56.964;-2.212;2022-09-09T17:01:20;4.07;;;1.33;;